createdAt,value
2022-11-16T00:01:54.462Z,96.33
2022-11-16T00:04:21.313Z,96.83
2022-11-16T00:06:49.630Z,97.56
2022-11-16T00:09:22.881Z,96.20
2022-11-16T00:11:51.743Z,98.33
2022-11-16T00:14:19.823Z,99.56
2022-11-16T00:16:46.936Z,98.32
2022-11-16T00:19:14.133Z,98.23
2022-11-16T00:21:41.263Z,98.43
2022-11-16T00:24:10.594Z,98.40
2022-11-16T00:26:37.406Z,98.21
2022-11-16T00:29:04.533Z,99.05
2022-11-16T00:31:31.537Z,100.00
2022-11-16T00:33:58.528Z,99.80
2022-11-16T00:36:25.358Z,99.56
2022-11-16T00:38:54.148Z,98.87
2022-11-16T00:41:21.183Z,99.46
2022-11-16T00:43:50.162Z,97.24
2022-11-16T00:46:17.376Z,96.57
2022-11-16T00:48:44.282Z,96.38
2022-11-16T00:51:12.168Z,96.01
2022-11-16T00:53:39.357Z,95.42
2022-11-16T00:56:06.733Z,95.23
2022-11-16T00:59:11.736Z,95.61
2022-11-16T01:02:41.988Z,95.03
2022-11-16T01:05:09.953Z,95.95
2022-11-16T01:07:38.441Z,95.81
2022-11-16T01:10:08.919Z,95.83
2022-11-16T01:12:35.709Z,96.10
2022-11-16T01:15:03.102Z,95.03
2022-11-16T01:17:30.006Z,94.23
2022-11-16T01:19:56.772Z,94.35
2022-11-16T01:22:23.597Z,93.88
2022-11-16T01:24:53.194Z,93.44
2022-11-16T01:27:20.097Z,93.15
2022-11-16T01:29:47.075Z,92.85
2022-11-16T01:32:16.909Z,92.61
2022-11-16T01:34:43.705Z,91.93
2022-11-16T01:37:10.585Z,92.63
2022-11-16T01:39:37.698Z,92.24
2022-11-16T01:42:04.894Z,92.01
2022-11-16T01:44:31.597Z,92.24
2022-11-16T01:46:59.644Z,92.42
2022-11-16T01:49:32.344Z,91.97
2022-11-16T01:52:05.064Z,92.40
2022-11-16T01:54:34.595Z,92.15
2022-11-16T01:57:05.535Z,92.10
2022-11-16T01:59:35.969Z,90.93
2022-11-16T02:02:03.576Z,91.42
2022-11-16T02:04:32.216Z,91.19
2022-11-16T02:07:27.868Z,91.80
2022-11-16T02:10:00.808Z,91.49
2022-11-16T02:13:11.840Z,92.73
2022-11-16T02:15:48.045Z,91.99
2022-11-16T02:18:48.554Z,91.77
2022-11-16T02:21:28.197Z,91.30
2022-11-16T02:24:32.265Z,91.97
2022-11-16T02:26:58.984Z,92.86
2022-11-16T02:29:31.546Z,92.27
2022-11-16T02:32:17.684Z,91.93
2022-11-16T02:34:57.046Z,92.05
2022-11-16T02:37:26.538Z,91.61
2022-11-16T02:39:57.798Z,91.62
2022-11-16T02:42:33.033Z,91.66
2022-11-16T02:45:02.397Z,92.66
2022-11-16T02:47:33.429Z,92.66
2022-11-16T02:50:05.703Z,93.28
2022-11-16T02:52:32.562Z,94.10
2022-11-16T02:54:59.360Z,93.93
2022-11-16T02:57:40.749Z,94.12
2022-11-16T03:00:15.926Z,95.09
2022-11-16T03:03:00.803Z,96.23
2022-11-16T03:05:33.819Z,96.75
2022-11-16T03:08:18.704Z,96.21
2022-11-16T03:11:10.564Z,97.10
2022-11-16T03:13:39.300Z,97.22
2022-11-16T03:16:34.946Z,97.71
2022-11-16T03:19:05.826Z,97.10
2022-11-16T03:22:07.601Z,97.68
2022-11-16T03:24:34.592Z,96.98
2022-11-16T03:27:26.017Z,98.54
2022-11-16T03:30:00.282Z,98.39
2022-11-16T03:32:46.288Z,99.78
2022-11-16T03:35:21.320Z,99.58
2022-11-16T03:37:50.974Z,100.00
2022-11-16T03:40:19.451Z,99.45
2022-11-16T03:42:49.820Z,99.69
2022-11-16T03:45:18.918Z,99.42
2022-11-16T03:47:46.567Z,99.46
2022-11-16T03:50:14.061Z,99.43
2022-11-16T03:52:41.471Z,100.00
2022-11-16T03:55:08.723Z,100.00
2022-11-16T03:57:35.855Z,99.90
2022-11-16T04:00:02.885Z,100.00
2022-11-16T04:02:29.742Z,99.06
2022-11-16T04:05:15.345Z,99.40
2022-11-16T04:08:01.205Z,99.13
2022-11-16T04:10:46.831Z,99.20
2022-11-16T04:13:34.171Z,99.69
2022-11-16T04:16:19.765Z,99.83
2022-11-16T04:19:05.402Z,100.00
2022-11-16T04:21:58.512Z,100.00
2022-11-16T04:24:29.761Z,100.00
2022-11-16T04:27:19.390Z,100.00
2022-11-16T04:29:46.850Z,100.00
2022-11-16T04:32:32.178Z,100.00
2022-11-16T04:35:17.562Z,100.00
2022-11-16T04:37:50.620Z,100.00
2022-11-16T04:40:24.919Z,100.00
2022-11-16T04:42:57.496Z,100.00
2022-11-16T04:45:51.588Z,100.00
2022-11-16T04:48:19.986Z,99.87
2022-11-16T04:50:47.808Z,99.68
2022-11-16T04:53:15.554Z,100.00
2022-11-16T04:55:42.755Z,100.00
2022-11-16T04:58:09.598Z,100.00
2022-11-16T05:00:36.520Z,100.00
2022-11-16T05:03:05.035Z,100.00
2022-11-16T05:05:31.845Z,100.00
2022-11-16T05:07:58.733Z,99.80
2022-11-16T05:10:25.854Z,99.31
2022-11-16T05:12:52.605Z,99.13
2022-11-16T05:15:19.989Z,98.01
2022-11-16T05:17:47.627Z,98.16
2022-11-16T05:20:33.045Z,98.02
2022-11-16T05:23:00.206Z,97.04
2022-11-16T05:25:31.269Z,96.41
2022-11-16T05:28:00.786Z,95.90
2022-11-16T05:30:29.796Z,96.04
2022-11-16T05:32:56.734Z,95.28
2022-11-16T05:35:23.495Z,95.34
2022-11-16T05:37:50.320Z,95.68
2022-11-16T05:40:17.206Z,95.42
2022-11-16T05:42:44.038Z,95.96
2022-11-16T05:45:11.146Z,95.20
2022-11-16T05:47:37.939Z,94.60
2022-11-16T05:50:05.157Z,91.51
2022-11-16T05:52:32.033Z,90.20
2022-11-16T05:54:58.825Z,86.56
2022-11-16T05:57:25.587Z,85.92
2022-11-16T06:00:00.156Z,86.80
2022-11-16T06:02:27.264Z,87.58
2022-11-16T06:04:54.085Z,88.53
2022-11-16T06:07:21.039Z,87.44
2022-11-16T06:09:47.838Z,87.72
2022-11-16T06:12:14.667Z,87.47
2022-11-16T06:14:41.495Z,86.19
2022-11-16T06:17:08.827Z,85.01
2022-11-16T06:19:35.596Z,83.85
2022-11-16T06:22:02.434Z,82.36
2022-11-16T06:24:29.266Z,82.00
2022-11-16T06:26:56.053Z,81.11
2022-11-16T06:29:23.074Z,82.55
2022-11-16T06:31:49.973Z,81.68
2022-11-16T06:34:17.195Z,81.59
2022-11-16T06:36:43.999Z,81.50
2022-11-16T06:39:13.037Z,81.82
2022-11-16T06:41:41.680Z,81.48
2022-11-16T06:44:08.757Z,81.84
2022-11-16T06:46:35.549Z,82.32
2022-11-16T06:49:02.340Z,82.14
2022-11-16T06:51:29.214Z,81.98
2022-11-16T06:53:55.978Z,81.61
2022-11-16T06:56:22.885Z,81.75
2022-11-16T06:58:53.196Z,81.72
2022-11-16T07:01:20.572Z,81.57
2022-11-16T07:03:47.509Z,81.63
2022-11-16T07:06:14.969Z,81.44
2022-11-16T07:08:41.834Z,80.95
2022-11-16T07:11:10.031Z,80.93
2022-11-16T07:13:38.193Z,80.75
2022-11-16T07:16:09.537Z,80.85
2022-11-16T07:18:38.207Z,81.13
2022-11-16T07:21:16.745Z,80.47
2022-11-16T07:23:44.826Z,80.05
2022-11-16T07:26:11.978Z,79.07
2022-11-16T07:28:42.171Z,77.24
2022-11-16T07:31:15.464Z,76.07
2022-11-16T07:33:42.402Z,75.92
2022-11-16T07:36:15.574Z,74.38
2022-11-16T07:38:42.504Z,74.24
2022-11-16T07:41:18.128Z,74.72
2022-11-16T07:43:51.552Z,74.86
2022-11-16T07:46:51.477Z,74.75
2022-11-16T07:49:14.010Z,74.81
2022-11-16T07:51:40.952Z,75.13
2022-11-16T07:54:08.394Z,75.32
2022-11-16T07:56:35.312Z,74.76
2022-11-16T07:59:02.563Z,75.74
2022-11-16T08:01:29.568Z,75.11
2022-11-16T08:03:56.544Z,74.82
2022-11-16T08:06:26.107Z,74.70
2022-11-16T08:08:57.970Z,74.82
2022-11-16T08:11:26.077Z,74.43
2022-11-16T08:13:53.060Z,74.21
2022-11-16T08:16:22.334Z,73.50
2022-11-16T08:18:49.699Z,73.67
2022-11-16T08:21:18.564Z,73.98
2022-11-16T08:23:46.008Z,73.90
2022-11-16T08:26:18.646Z,73.83
2022-11-16T08:28:47.488Z,74.02
2022-11-16T08:31:17.069Z,73.66
2022-11-16T08:33:43.899Z,73.75
2022-11-16T08:36:17.253Z,73.92
2022-11-16T08:38:46.373Z,73.87
2022-11-16T08:41:14.283Z,73.94
2022-11-16T08:43:41.637Z,74.39
2022-11-16T08:46:09.997Z,74.74
2022-11-16T08:48:37.674Z,74.37
2022-11-16T08:51:21.556Z,75.05
2022-11-16T08:53:49.612Z,75.00
2022-11-16T08:56:18.696Z,74.97
2022-11-16T08:58:52.614Z,75.10
2022-11-16T09:01:25.702Z,74.96
2022-11-16T09:03:53.837Z,74.94
2022-11-16T09:06:21.573Z,75.45
2022-11-16T09:08:48.801Z,75.14
2022-11-16T09:11:18.599Z,74.36
2022-11-16T09:13:47.120Z,74.55
2022-11-16T09:16:16.863Z,73.81
2022-11-16T09:18:46.793Z,73.42
2022-11-16T09:21:19.253Z,73.20
2022-11-16T09:23:47.254Z,73.30
2022-11-16T09:26:14.716Z,73.89
2022-11-16T09:28:41.819Z,74.10
2022-11-16T09:31:10.368Z,74.33
2022-11-16T09:33:38.068Z,75.36
2022-11-16T09:36:08.070Z,74.28
2022-11-16T09:39:13.959Z,75.88
2022-11-16T09:41:26.589Z,75.36
2022-11-16T09:44:10.005Z,75.87
2022-11-16T09:46:56.054Z,75.17
2022-11-16T09:49:31.370Z,75.03
2022-11-16T09:52:03.072Z,75.47
2022-11-16T09:54:36.237Z,76.13
2022-11-16T09:57:12.367Z,75.99
2022-11-16T09:59:45.530Z,76.42
2022-11-16T10:02:42.269Z,76.63
2022-11-16T10:05:20.575Z,76.80
2022-11-16T10:07:51.720Z,76.13
2022-11-16T10:10:42.897Z,75.77
2022-11-16T10:13:09.834Z,75.74
2022-11-16T10:16:03.314Z,75.61
2022-11-16T10:18:54.265Z,75.70
2022-11-16T10:21:42.332Z,75.76
2022-11-16T10:24:56.709Z,74.92
2022-11-16T10:27:44.726Z,75.44
2022-11-16T10:30:21.376Z,75.00
2022-11-16T10:33:08.160Z,75.14
2022-11-16T10:35:42.589Z,75.78
2022-11-16T10:38:20.509Z,74.86
2022-11-16T10:40:52.036Z,75.10
2022-11-16T10:43:23.401Z,75.85
2022-11-16T10:46:08.617Z,75.96
2022-11-16T10:49:07.460Z,75.43
2022-11-16T10:51:34.431Z,75.03
2022-11-16T10:54:01.406Z,74.93
2022-11-16T10:56:42.777Z,74.99
2022-11-16T10:59:18.041Z,75.08
2022-11-16T11:01:53.468Z,74.76
2022-11-16T11:04:24.533Z,75.51
2022-11-16T11:06:55.962Z,75.39
2022-11-16T11:09:29.554Z,75.56
2022-11-16T11:12:38.327Z,75.97
2022-11-16T11:15:27.132Z,75.11
2022-11-16T11:18:12.219Z,75.32
2022-11-16T11:20:44.732Z,74.61
2022-11-16T11:23:17.090Z,73.42
2022-11-16T11:25:59.402Z,72.71
2022-11-16T11:28:32.809Z,72.39
2022-11-16T11:31:04.614Z,71.39
2022-11-16T11:34:00.731Z,71.18
2022-11-16T11:36:40.652Z,71.20
2022-11-16T11:39:13.753Z,70.54
2022-11-16T11:41:43.296Z,71.38
2022-11-16T11:44:13.120Z,71.04
2022-11-16T11:47:35.047Z,70.67
2022-11-16T11:49:40.334Z,70.86
2022-11-16T11:52:21.078Z,70.45
2022-11-16T11:54:52.361Z,70.45
2022-11-16T11:57:24.008Z,69.96
2022-11-16T11:59:53.373Z,70.83
2022-11-16T12:02:40.179Z,70.68
2022-11-16T12:05:48.695Z,70.69
2022-11-16T12:08:50.987Z,70.88
2022-11-16T12:11:47.645Z,71.64
2022-11-16T12:14:35.601Z,71.81
2022-11-16T12:17:23.832Z,72.00
2022-11-16T12:20:20.006Z,72.47
2022-11-16T12:23:03.761Z,73.01
2022-11-16T12:26:00.868Z,71.79
2022-11-16T12:28:53.333Z,72.49
2022-11-16T12:31:34.959Z,72.07
2022-11-16T12:34:16.031Z,72.61
2022-11-16T12:37:21.272Z,72.75
2022-11-16T12:40:09.652Z,73.32
2022-11-16T12:42:55.238Z,72.58
2022-11-16T12:45:36.100Z,73.25
2022-11-16T12:48:34.390Z,73.39
2022-11-16T12:51:19.960Z,73.18
2022-11-16T12:53:52.850Z,73.29
2022-11-16T12:57:01.548Z,74.02
2022-11-16T12:59:35.911Z,74.36
2022-11-16T13:02:05.522Z,74.11
2022-11-16T13:04:37.227Z,75.18
2022-11-16T13:07:27.875Z,75.07
2022-11-16T13:10:14.580Z,75.03
2022-11-16T13:12:43.320Z,74.58
2022-11-16T13:15:19.565Z,74.02
2022-11-16T13:18:00.034Z,74.20
2022-11-16T13:20:46.715Z,73.65
2022-11-16T13:23:22.524Z,73.07
2022-11-16T13:25:57.428Z,73.51
2022-11-16T13:28:37.653Z,73.29
2022-11-16T13:31:31.879Z,72.66
2022-11-16T13:34:15.796Z,73.49
2022-11-16T13:36:45.303Z,73.89
2022-11-16T13:39:22.590Z,73.94
2022-11-16T13:42:07.441Z,74.22
2022-11-16T13:44:35.213Z,74.28
2022-11-16T13:47:05.984Z,73.98
2022-11-16T13:49:48.339Z,74.40
2022-11-16T13:52:23.684Z,74.24
2022-11-16T13:54:56.071Z,74.55
2022-11-16T13:57:31.055Z,74.70
2022-11-16T14:00:00.688Z,75.12
2022-11-16T14:02:37.893Z,75.08
2022-11-16T14:05:16.437Z,75.16
2022-11-16T14:07:50.116Z,75.22
2022-11-16T14:10:37.185Z,76.11
2022-11-16T14:13:05.334Z,76.21
2022-11-16T14:15:37.861Z,77.51
2022-11-16T14:18:07.741Z,78.61
2022-11-16T14:20:40.123Z,78.96
2022-11-16T14:23:15.746Z,80.22
2022-11-16T14:26:07.941Z,80.21
2022-11-16T14:29:00.591Z,80.60
2022-11-16T14:31:32.166Z,81.26
2022-11-16T14:34:01.011Z,80.62
2022-11-16T14:36:40.730Z,80.75
2022-11-16T14:39:30.481Z,81.38
2022-11-16T14:42:54.269Z,81.89
2022-11-16T14:45:28.669Z,82.61
2022-11-16T14:48:06.049Z,82.24
2022-11-16T14:50:39.616Z,81.80
2022-11-16T14:53:10.039Z,82.75
2022-11-16T14:55:43.436Z,85.15
2022-11-16T14:58:18.147Z,86.96
2022-11-16T15:00:57.244Z,87.88
2022-11-16T15:03:28.078Z,87.86
2022-11-16T15:06:00.999Z,88.10
2022-11-16T15:08:42.473Z,89.42
2022-11-16T15:11:20.605Z,90.16
2022-11-16T15:13:47.796Z,90.49
2022-11-16T15:16:20.740Z,90.54
2022-11-16T15:19:01.931Z,91.18
2022-11-16T15:21:29.482Z,92.85
2022-11-16T15:26:43.820Z,93.22
2022-11-16T15:29:22.329Z,96.25
2022-11-16T15:31:49.962Z,93.27
2022-11-16T15:34:20.560Z,93.51
2022-11-16T15:36:49.373Z,95.87
2022-11-16T15:39:23.402Z,94.91
2022-11-16T15:41:52.144Z,96.36
2022-11-16T15:44:21.663Z,96.90
2022-11-16T15:46:52.178Z,97.60
2022-11-16T15:49:37.936Z,99.15
2022-11-16T15:52:05.977Z,99.71
2022-11-16T15:54:55.287Z,99.91
2022-11-16T15:57:24.174Z,100.00
2022-11-16T15:59:57.512Z,100.00
2022-11-16T16:02:29.358Z,100.00
2022-11-16T16:04:56.782Z,100.00
2022-11-16T16:07:41.763Z,100.00
2022-11-16T16:10:25.846Z,100.00
2022-11-16T16:12:54.796Z,100.00
2022-11-16T16:15:25.454Z,100.00
2022-11-16T16:17:54.695Z,100.00
2022-11-16T16:20:24.645Z,100.00
2022-11-16T16:22:52.657Z,100.00
2022-11-16T16:25:50.294Z,100.00
2022-11-16T16:28:18.476Z,100.00
2022-11-16T16:30:45.739Z,100.00
2022-11-16T16:33:19.762Z,100.00
2022-11-16T16:35:49.987Z,100.00
2022-11-16T16:38:17.191Z,100.00
2022-11-16T16:40:44.175Z,100.00
2022-11-16T16:43:11.258Z,100.00
2022-11-16T16:45:42.270Z,100.00
2022-11-16T16:48:10.769Z,100.00
2022-11-16T16:50:39.278Z,100.00
2022-11-16T16:53:06.507Z,100.00
2022-11-16T16:55:37.484Z,100.00
2022-11-16T16:58:05.615Z,100.00
2022-11-16T17:00:36.950Z,100.00
2022-11-16T17:03:04.027Z,100.00
2022-11-16T17:05:34.254Z,100.00
2022-11-16T17:08:01.887Z,100.00
2022-11-16T17:10:29.276Z,100.00
2022-11-16T17:12:57.057Z,100.00
2022-11-16T17:15:25.106Z,100.00
2022-11-16T17:17:54.930Z,100.00
2022-11-16T17:20:21.924Z,100.00
2022-11-16T17:22:50.178Z,100.00
2022-11-16T17:25:17.641Z,100.00
2022-11-16T17:27:44.795Z,100.00
2022-11-16T17:30:12.694Z,100.00
2022-11-16T17:32:44.450Z,100.00
2022-11-16T17:35:12.198Z,100.00
2022-11-16T17:37:39.446Z,100.00
2022-11-16T17:40:07.199Z,100.00
2022-11-16T17:42:35.981Z,100.00
2022-11-16T17:45:13.314Z,100.00
2022-11-16T17:47:51.537Z,100.00
2022-11-16T17:50:22.128Z,100.00
2022-11-16T17:52:49.424Z,100.00
2022-11-16T17:55:24.807Z,100.00
2022-11-16T17:57:54.351Z,100.00
2022-11-16T18:00:21.498Z,100.00
2022-11-16T18:02:48.337Z,100.00
2022-11-16T18:05:16.608Z,100.00
2022-11-16T18:07:43.806Z,100.00
2022-11-16T18:10:13.778Z,100.00
2022-11-16T18:12:44.999Z,100.00
2022-11-16T18:15:27.922Z,100.00
2022-11-16T18:17:59.347Z,100.00
2022-11-16T18:20:28.118Z,100.00
2022-11-16T18:22:58.593Z,100.00
2022-11-16T18:25:25.540Z,100.00
2022-11-16T18:27:54.653Z,100.00
2022-11-16T18:30:23.233Z,100.00
2022-11-16T18:32:50.433Z,100.00
2022-11-16T18:35:18.104Z,100.00
2022-11-16T18:37:45.063Z,100.00
2022-11-16T18:40:15.614Z,100.00
2022-11-16T18:42:42.883Z,100.00
2022-11-16T18:45:10.174Z,100.00
2022-11-16T18:47:37.046Z,100.00
2022-11-16T18:50:20.137Z,100.00
2022-11-16T18:52:49.861Z,100.00
2022-11-16T18:55:18.221Z,100.00
2022-11-16T18:57:45.236Z,100.00
2022-11-16T19:00:13.210Z,100.00
2022-11-16T19:02:40.288Z,100.00
2022-11-16T19:05:08.036Z,100.00
2022-11-16T19:07:35.232Z,100.00
2022-11-16T19:10:02.355Z,100.00
2022-11-16T19:12:29.459Z,100.00
2022-11-16T19:14:56.485Z,100.00
2022-11-16T19:17:25.622Z,100.00
2022-11-16T19:19:52.800Z,100.00
2022-11-16T19:22:20.815Z,100.00
2022-11-16T19:24:47.941Z,100.00
2022-11-16T19:27:16.862Z,100.00
2022-11-16T19:29:43.787Z,100.00
2022-11-16T19:32:10.773Z,100.00
2022-11-16T19:34:37.767Z,100.00
2022-11-16T19:37:04.672Z,100.00
2022-11-16T19:39:31.545Z,100.00
2022-11-16T19:41:58.368Z,100.00
2022-11-16T19:44:25.223Z,100.00
2022-11-16T19:46:53.322Z,100.00
2022-11-16T19:49:21.952Z,100.00
2022-11-16T19:51:49.799Z,100.00
2022-11-16T19:54:19.685Z,100.00
2022-11-16T19:56:50.518Z,100.00
2022-11-16T19:59:20.537Z,100.00
2022-11-16T20:01:47.515Z,100.00
2022-11-16T20:04:15.562Z,100.00
2022-11-16T20:06:42.508Z,100.00
2022-11-16T20:09:12.140Z,100.00
2022-11-16T20:11:41.522Z,100.00
2022-11-16T20:14:10.677Z,100.00
2022-11-16T20:16:40.423Z,100.00
2022-11-16T20:19:09.343Z,100.00
2022-11-16T20:21:41.600Z,100.00
2022-11-16T20:24:11.777Z,100.00
2022-11-16T20:26:46.493Z,100.00
2022-11-16T20:29:15.339Z,100.00
2022-11-16T20:31:43.102Z,100.00
2022-11-16T20:34:16.582Z,100.00
2022-11-16T20:36:46.390Z,100.00
2022-11-16T20:39:16.410Z,100.00
2022-11-16T20:41:44.256Z,100.00
2022-11-16T20:44:18.675Z,100.00
2022-11-16T20:46:45.644Z,100.00
2022-11-16T20:49:12.896Z,100.00
2022-11-16T20:51:40.293Z,100.00
2022-11-16T20:54:07.545Z,100.00
2022-11-16T20:56:36.822Z,100.00
2022-11-16T20:59:04.133Z,100.00
2022-11-16T21:01:34.102Z,100.00
2022-11-16T21:04:04.190Z,100.00
2022-11-16T21:06:32.139Z,100.00
2022-11-16T21:08:59.782Z,100.00
2022-11-16T21:11:29.276Z,100.00
2022-11-16T21:16:44.160Z,100.00
2022-11-16T21:19:12.093Z,100.00
2022-11-16T21:21:41.047Z,100.00
2022-11-16T21:24:13.573Z,100.00
2022-11-16T21:26:40.758Z,100.00
2022-11-16T21:29:07.942Z,100.00
2022-11-16T21:31:36.691Z,100.00
2022-11-16T21:34:04.205Z,100.00
2022-11-16T21:36:32.393Z,100.00
2022-11-16T21:38:59.786Z,100.00
2022-11-16T21:41:27.422Z,100.00
2022-11-16T21:43:54.664Z,100.00
2022-11-16T21:46:26.880Z,100.00
2022-11-16T21:48:56.792Z,100.00
2022-11-16T21:51:26.564Z,100.00
2022-11-16T21:53:54.994Z,100.00
2022-11-16T21:56:24.866Z,100.00
2022-11-16T21:58:54.380Z,100.00
2022-11-16T22:01:23.217Z,100.00
2022-11-16T22:04:10.547Z,100.00
2022-11-16T22:06:56.729Z,100.00
2022-11-16T22:09:24.772Z,100.00
2022-11-16T22:11:51.822Z,100.00
2022-11-16T22:14:19.045Z,100.00
2022-11-16T22:16:46.984Z,100.00
2022-11-16T22:19:14.258Z,100.00
2022-11-16T22:21:41.324Z,100.00
2022-11-16T22:24:08.469Z,100.00
2022-11-16T23:01:14.222Z,100.00
2022-11-16T23:06:16.947Z,100.00
2022-11-16T23:08:44.050Z,100.00
2022-11-16T23:11:34.544Z,100.00
2022-11-16T23:14:20.506Z,100.00
2022-11-16T23:16:47.517Z,100.00
2022-11-16T23:19:34.845Z,100.00
2022-11-16T23:22:20.575Z,100.00
2022-11-16T23:25:05.897Z,100.00
2022-11-16T23:28:01.040Z,100.00
2022-11-16T23:30:27.896Z,100.00
2022-11-16T23:32:55.202Z,100.00
2022-11-16T23:35:22.654Z,100.00
2022-11-16T23:37:57.564Z,100.00
2022-11-16T23:40:36.004Z,100.00
2022-11-16T23:43:22.445Z,100.00
2022-11-16T23:45:49.715Z,100.00
2022-11-16T23:48:18.584Z,100.00
2022-11-16T23:50:46.346Z,100.00
2022-11-16T23:53:14.032Z,100.00
2022-11-16T23:55:41.168Z,100.00
2022-11-16T23:58:13.430Z,100.00
